Terminal Aerodrome Forecast
Issued by NWS

Home | Current Version | Previous Version | Text Only | Print | Product List | Glossary On
Versions: 1 2 3 4 5 6 7 8 9 10 11 12 13 14 15 16 17
226
FTUS44 KMAF 251120
TAFFST
TAF
KFST 251120Z 2512/2612 12007KT P6SM BKN100
     FM251400 06010KT P6SM -SHRA SCT030 BKN080
      TEMPO 2516/2520 6SM TSRA BR BKN030CB
     FM252100 03015G25KT 3SM TSRA BR OVC020CB=

USA.gov is the U.S. government's official web portal to all federal, state and local government web resources and services.